sensor_id;sensor_type;location;lat;lon;timestamp;pressure;altitude;pressure_sealevel;temperature;humidity
22241;BME280;11289;52.524;13.694;2024-01-11T00:00:35;102528.38;;;-7.79;75.20
22241;BME280;11289;52.524;13.694;2024-01-11T00:03:01;102540.97;;;-7.80;75.28
22241;BME280;11289;52.524;13.694;2024-01-11T00:05:27;102545.72;;;-7.82;75.67
22241;BME280;11289;52.524;13.694;2024-01-11T00:07:53;102542.84;;;-7.80;75.93
22241;BME280;11289;52.524;13.694;2024-01-11T00:10:19;102539.47;;;-7.82;75.75
22241;BME280;11289;52.524;13.694;2024-01-11T00:12:46;102535.09;;;-7.83;75.75
22241;BME280;11289;52.524;13.694;2024-01-11T00:15:12;102521.75;;;-7.85;76.09
22241;BME280;11289;52.524;13.694;2024-01-11T00:17:38;102512.66;;;-7.84;75.77
22241;BME280;11289;52.524;13.694;2024-01-11T00:20:05;102508.78;;;-7.81;76.03
22241;BME280;11289;52.524;13.694;2024-01-11T00:22:31;102498.16;;;-7.83;76.27
22241;BME280;11289;52.524;13.694;2024-01-11T00:24:58;102504.41;;;-7.82;76.64
22241;BME280;11289;52.524;13.694;2024-01-11T00:27:23;102506.94;;;-7.81;77.00
22241;BME280;11289;52.524;13.694;2024-01-11T00:29:49;102504.75;;;-7.77;77.07
22241;BME280;11289;52.524;13.694;2024-01-11T00:32:15;102493.13;;;-7.78;77.40
22241;BME280;11289;52.524;13.694;2024-01-11T00:34:41;102492.28;;;-7.78;77.72
22241;BME280;11289;52.524;13.694;2024-01-11T00:37:07;102476.28;;;-7.72;78.16
22241;BME280;11289;52.524;13.694;2024-01-11T00:39:33;102463.78;;;-7.73;78.01
22241;BME280;11289;52.524;13.694;2024-01-11T00:41:59;102458.22;;;-7.71;78.01
22241;BME280;11289;52.524;13.694;2024-01-11T00:44:25;102456.72;;;-7.74;78.53
22241;BME280;11289;52.524;13.694;2024-01-11T00:46:51;102467.69;;;-7.67;78.81
22241;BME280;11289;52.524;13.694;2024-01-11T00:49:17;102464.34;;;-7.61;78.79
22241;BME280;11289;52.524;13.694;2024-01-11T00:51:43;102451.69;;;-7.60;79.59
22241;BME280;11289;52.524;13.694;2024-01-11T00:54:09;102450.88;;;-7.61;79.49
22241;BME280;11289;52.524;13.694;2024-01-11T00:56:35;102462.81;;;-7.55;79.49
22241;BME280;11289;52.524;13.694;2024-01-11T00:59:01;102488.31;;;-7.49;80.05
22241;BME280;11289;52.524;13.694;2024-01-11T01:01:27;102441.09;;;-7.54;80.46
22241;BME280;11289;52.524;13.694;2024-01-11T01:03:52;102406.50;;;-7.50;80.63
22241;BME280;11289;52.524;13.694;2024-01-11T01:06:18;102417.97;;;-7.48;80.69
22241;BME280;11289;52.524;13.694;2024-01-11T01:08:44;102429.47;;;-7.46;81.15
22241;BME280;11289;52.524;13.694;2024-01-11T01:11:10;102438.22;;;-7.44;81.03
22241;BME280;11289;52.524;13.694;2024-01-11T01:13:36;102443.28;;;-7.41;81.64
22241;BME280;11289;52.524;13.694;2024-01-11T01:16:02;102431.31;;;-7.38;81.60
22241;BME280;11289;52.524;13.694;2024-01-11T01:18:28;102427.94;;;-7.40;81.49
22241;BME280;11289;52.524;13.694;2024-01-11T01:20:55;102423.03;;;-7.37;81.57
22241;BME280;11289;52.524;13.694;2024-01-11T01:23:21;102418.34;;;-7.35;81.47
22241;BME280;11289;52.524;13.694;2024-01-11T01:25:48;102433.34;;;-7.32;81.51
22241;BME280;11289;52.524;13.694;2024-01-11T01:28:14;102442.63;;;-7.35;81.96
22241;BME280;11289;52.524;13.694;2024-01-11T01:30:40;102444.13;;;-7.32;82.02
22241;BME280;11289;52.524;13.694;2024-01-11T01:33:06;102451.25;;;-7.23;82.04
22241;BME280;11289;52.524;13.694;2024-01-11T01:35:32;102439.44;;;-7.22;82.02
22241;BME280;11289;52.524;13.694;2024-01-11T01:37:59;102435.06;;;-7.23;82.36
22241;BME280;11289;52.524;13.694;2024-01-11T01:40:25;102450.75;;;-7.18;82.44
22241;BME280;11289;52.524;13.694;2024-01-11T01:42:58;102454.09;;;-7.16;82.51
22241;BME280;11289;52.524;13.694;2024-01-11T01:45:24;102452.94;;;-7.13;82.36
22241;BME280;11289;52.524;13.694;2024-01-11T01:47:50;102453.94;;;-7.14;81.97
22241;BME280;11289;52.524;13.694;2024-01-11T01:50:16;102457.34;;;-7.12;82.38
22241;BME280;11289;52.524;13.694;2024-01-11T01:52:43;102470.50;;;-7.09;82.28
22241;BME280;11289;52.524;13.694;2024-01-11T01:55:10;102475.91;;;-7.09;82.55
22241;BME280;11289;52.524;13.694;2024-01-11T01:57:39;102481.13;;;-7.08;82.70
22241;BME280;11289;52.524;13.694;2024-01-11T02:00:08;102485.69;;;-7.08;83.27
22241;BME280;11289;52.524;13.694;2024-01-11T02:02:34;102475.91;;;-7.09;83.00
22241;BME280;11289;52.524;13.694;2024-01-11T02:05:01;102493.09;;;-7.10;83.97
22241;BME280;11289;52.524;13.694;2024-01-11T02:07:27;102496.13;;;-7.13;83.91
22241;BME280;11289;52.524;13.694;2024-01-11T02:09:53;102488.91;;;-7.13;83.96
22241;BME280;11289;52.524;13.694;2024-01-11T02:12:20;102475.22;;;-7.11;84.20
22241;BME280;11289;52.524;13.694;2024-01-11T02:14:46;102472.50;;;-7.03;84.39
22241;BME280;11289;52.524;13.694;2024-01-11T02:17:12;102470.34;;;-7.00;83.81
22241;BME280;11289;52.524;13.694;2024-01-11T02:19:38;102481.47;;;-6.94;84.05
22241;BME280;11289;52.524;13.694;2024-01-11T02:22:21;102468.47;;;-6.91;83.70
22241;BME280;11289;52.524;13.694;2024-01-11T02:24:47;102474.38;;;-6.87;83.58
22241;BME280;11289;52.524;13.694;2024-01-11T02:27:13;102470.50;;;-6.85;83.73
22241;BME280;11289;52.524;13.694;2024-01-11T02:29:40;102481.81;;;-6.89;83.95
22241;BME280;11289;52.524;13.694;2024-01-11T02:32:06;102479.25;;;-6.83;84.06
22241;BME280;11289;52.524;13.694;2024-01-11T02:34:33;102478.94;;;-6.79;84.10
22241;BME280;11289;52.524;13.694;2024-01-11T02:36:59;102472.16;;;-6.75;85.04
22241;BME280;11289;52.524;13.694;2024-01-11T02:39:25;102458.47;;;-6.74;85.26
22241;BME280;11289;52.524;13.694;2024-01-11T02:41:53;102449.38;;;-6.73;84.85
22241;BME280;11289;52.524;13.694;2024-01-11T02:44:19;102433.69;;;-6.69;84.88
22241;BME280;11289;52.524;13.694;2024-01-11T02:46:44;102445.81;;;-6.65;84.81
22241;BME280;11289;52.524;13.694;2024-01-11T02:49:10;102438.38;;;-6.63;85.17
22241;BME280;11289;52.524;13.694;2024-01-11T02:51:36;102435.50;;;-6.61;85.24
22241;BME280;11289;52.524;13.694;2024-01-11T02:54:02;102434.16;;;-6.57;84.97
22241;BME280;11289;52.524;13.694;2024-01-11T02:56:28;102430.28;;;-6.55;84.73
22241;BME280;11289;52.524;13.694;2024-01-11T02:58:54;102435.31;;;-6.52;84.89
22241;BME280;11289;52.524;13.694;2024-01-11T03:01:20;102435.31;;;-6.52;85.26
22241;BME280;11289;52.524;13.694;2024-01-11T03:03:46;102437.84;;;-6.50;85.39
22241;BME280;11289;52.524;13.694;2024-01-11T03:06:12;102442.91;;;-6.47;86.20
22241;BME280;11289;52.524;13.694;2024-01-11T03:08:38;102436.31;;;-6.44;85.94
22241;BME280;11289;52.524;13.694;2024-01-11T03:11:04;102446.09;;;-6.43;86.76
22241;BME280;11289;52.524;13.694;2024-01-11T03:13:31;102436.16;;;-6.43;86.57
22241;BME280;11289;52.524;13.694;2024-01-11T03:15:57;102437.66;;;-6.40;86.84
22241;BME280;11289;52.524;13.694;2024-01-11T03:18:23;102445.25;;;-6.36;88.24
22241;BME280;11289;52.524;13.694;2024-01-11T03:20:49;102449.97;;;-6.38;88.39
22241;BME280;11289;52.524;13.694;2024-01-11T03:23:14;102431.06;;;-6.38;88.77
22241;BME280;11289;52.524;13.694;2024-01-11T03:25:40;102426.16;;;-6.34;88.58
22241;BME280;11289;52.524;13.694;2024-01-11T03:28:06;102428.84;;;-6.34;88.44
22241;BME280;11289;52.524;13.694;2024-01-11T03:30:32;102440.66;;;-6.27;88.28
22241;BME280;11289;52.524;13.694;2024-01-11T03:32:58;102443.03;;;-6.24;88.61
22241;BME280;11289;52.524;13.694;2024-01-11T03:35:24;102431.38;;;-6.24;89.40
22241;BME280;11289;52.524;13.694;2024-01-11T03:37:50;102420.56;;;-6.24;89.32
22241;BME280;11289;52.524;13.694;2024-01-11T03:40:17;102414.63;;;-6.28;89.57
22241;BME280;11289;52.524;13.694;2024-01-11T03:42:43;102411.03;;;-6.20;89.84
22241;BME280;11289;52.524;13.694;2024-01-11T03:45:09;102394.81;;;-6.20;89.57
22241;BME280;11289;52.524;13.694;2024-01-11T03:47:35;102412.38;;;-6.16;89.00
22241;BME280;11289;52.524;13.694;2024-01-11T03:50:01;102416.59;;;-6.14;89.72
22241;BME280;11289;52.524;13.694;2024-01-11T03:52:27;102398.22;;;-6.18;89.80
22241;BME280;11289;52.524;13.694;2024-01-11T03:54:53;102403.56;;;-6.10;89.14
22241;BME280;11289;52.524;13.694;2024-01-11T03:57:19;102401.03;;;-6.12;89.27
22241;BME280;11289;52.524;13.694;2024-01-11T03:59:45;102400.81;;;-6.02;89.15
22241;BME280;11289;52.524;13.694;2024-01-11T04:02:11;102393.53;;;-6.01;88.85
22241;BME280;11289;52.524;13.694;2024-01-11T04:04:37;102384.25;;;-5.99;88.30
22241;BME280;11289;52.524;13.694;2024-01-11T04:07:03;102389.06;;;-5.94;88.47
22241;BME280;11289;52.524;13.694;2024-01-11T04:09:29;102387.06;;;-5.92;88.17
22241;BME280;11289;52.524;13.694;2024-01-11T04:11:56;102381.66;;;-5.92;88.10
22241;BME280;11289;52.524;13.694;2024-01-11T04:14:22;102390.22;;;-5.88;88.28
22241;BME280;11289;52.524;13.694;2024-01-11T04:16:48;102381.81;;;-5.93;88.08
22241;BME280;11289;52.524;13.694;2024-01-11T04:19:14;102378.75;;;-5.90;88.13
22241;BME280;11289;52.524;13.694;2024-01-11T04:21:40;102392.09;;;-5.89;87.98
22241;BME280;11289;52.524;13.694;2024-01-11T04:24:06;102396.44;;;-5.80;88.19
22241;BME280;11289;52.524;13.694;2024-01-11T04:26:32;102411.00;;;-5.81;88.03
22241;BME280;11289;52.524;13.694;2024-01-11T04:28:58;102401.16;;;-5.73;87.91
22241;BME280;11289;52.524;13.694;2024-01-11T04:31:26;102387.44;;;-5.72;87.77
22241;BME280;11289;52.524;13.694;2024-01-11T04:33:52;102394.34;;;-5.69;87.72
22241;BME280;11289;52.524;13.694;2024-01-11T04:36:18;102410.28;;;-5.74;88.08
22241;BME280;11289;52.524;13.694;2024-01-11T04:38:44;102404.16;;;-5.68;88.43
22241;BME280;11289;52.524;13.694;2024-01-11T04:41:14;102398.03;;;-5.62;88.33
22241;BME280;11289;52.524;13.694;2024-01-11T04:43:41;102406.47;;;-5.57;88.02
22241;BME280;11289;52.524;13.694;2024-01-11T04:46:17;102400.03;;;-5.56;87.93
22241;BME280;11289;52.524;13.694;2024-01-11T04:48:44;102368.00;;;-5.52;87.80
22241;BME280;11289;52.524;13.694;2024-01-11T04:51:11;102360.38;;;-5.49;87.84
22241;BME280;11289;52.524;13.694;2024-01-11T04:53:38;102354.28;;;-5.51;88.12
22241;BME280;11289;52.524;13.694;2024-01-11T04:56:08;102372.88;;;-5.48;88.16
22241;BME280;11289;52.524;13.694;2024-01-11T04:58:35;102361.88;;;-5.46;88.31
22241;BME280;11289;52.524;13.694;2024-01-11T05:01:02;102351.41;;;-5.49;88.04
22241;BME280;11289;52.524;13.694;2024-01-11T05:03:28;102354.09;;;-5.49;88.50
22241;BME280;11289;52.524;13.694;2024-01-11T05:05:55;102330.88;;;-5.44;88.42
22241;BME280;11289;52.524;13.694;2024-01-11T05:08:21;102362.38;;;-5.43;88.59
22241;BME280;11289;52.524;13.694;2024-01-11T05:10:47;102388.06;;;-5.38;88.65
22241;BME280;11289;52.524;13.694;2024-01-11T05:13:12;102382.28;;;-5.35;88.35
22241;BME280;11289;52.524;13.694;2024-01-11T05:15:38;102378.56;;;-5.34;88.86
22241;BME280;11289;52.524;13.694;2024-01-11T05:18:04;102341.66;;;-5.35;89.01
22241;BME280;11289;52.524;13.694;2024-01-11T05:20:30;102344.00;;;-5.32;88.35
22241;BME280;11289;52.524;13.694;2024-01-11T05:22:56;102363.78;;;-5.32;88.57
22241;BME280;11289;52.524;13.694;2024-01-11T05:25:22;102368.38;;;-5.32;88.73
22241;BME280;11289;52.524;13.694;2024-01-11T05:27:48;102370.72;;;-5.29;89.15
22241;BME280;11289;52.524;13.694;2024-01-11T05:30:14;102363.53;;;-5.22;88.98
22241;BME280;11289;52.524;13.694;2024-01-11T05:32:40;102343.56;;;-5.21;88.76
22241;BME280;11289;52.524;13.694;2024-01-11T05:35:06;102339.47;;;-5.17;89.28
22241;BME280;11289;52.524;13.694;2024-01-11T05:37:32;102336.94;;;-5.18;88.66
22241;BME280;11289;52.524;13.694;2024-01-11T05:39:58;102335.44;;;-5.21;88.57
22241;BME280;11289;52.524;13.694;2024-01-11T05:42:24;102354.78;;;-5.09;89.16
22241;BME280;11289;52.524;13.694;2024-01-11T05:44:51;102355.25;;;-5.05;89.67
22241;BME280;11289;52.524;13.694;2024-01-11T05:47:17;102330.53;;;-5.02;89.79
22241;BME280;11289;52.524;13.694;2024-01-11T05:49:43;102356.19;;;-4.98;89.10
22241;BME280;11289;52.524;13.694;2024-01-11T05:52:09;102356.19;;;-4.98;89.67
22241;BME280;11289;52.524;13.694;2024-01-11T05:54:35;102349.38;;;-4.94;89.80
22241;BME280;11289;52.524;13.694;2024-01-11T05:57:01;102354.16;;;-4.96;89.65
22241;BME280;11289;52.524;13.694;2024-01-11T05:59:27;102363.88;;;-4.87;89.76
22241;BME280;11289;52.524;13.694;2024-01-11T06:01:53;102358.94;;;-4.83;89.65
22241;BME280;11289;52.524;13.694;2024-01-11T06:04:18;102362.31;;;-4.81;89.45
22241;BME280;11289;52.524;13.694;2024-01-11T06:06:44;102368.38;;;-4.79;90.14
22241;BME280;11289;52.524;13.694;2024-01-11T06:09:10;102349.88;;;-4.76;90.02
22241;BME280;11289;52.524;13.694;2024-01-11T06:11:36;102347.81;;;-4.74;90.12
22241;BME280;11289;52.524;13.694;2024-01-11T06:14:02;102356.69;;;-4.65;89.98
22241;BME280;11289;52.524;13.694;2024-01-11T06:16:28;102355.03;;;-4.66;89.91
22241;BME280;11289;52.524;13.694;2024-01-11T06:18:55;102354.66;;;-4.63;90.50
22241;BME280;11289;52.524;13.694;2024-01-11T06:21:20;102349.22;;;-4.63;90.78
22241;BME280;11289;52.524;13.694;2024-01-11T06:23:46;102357.38;;;-4.63;90.78
22241;BME280;11289;52.524;13.694;2024-01-11T06:26:12;102368.47;;;-4.58;90.72
22241;BME280;11289;52.524;13.694;2024-01-11T06:28:38;102363.34;;;-4.52;90.84
22241;BME280;11289;52.524;13.694;2024-01-11T06:31:04;102342.88;;;-4.55;90.93
22241;BME280;11289;52.524;13.694;2024-01-11T06:33:30;102329.78;;;-4.51;90.73
22241;BME280;11289;52.524;13.694;2024-01-11T06:35:58;102339.78;;;-4.52;91.30
22241;BME280;11289;52.524;13.694;2024-01-11T06:38:24;102322.09;;;-4.48;91.50
22241;BME280;11289;52.524;13.694;2024-01-11T06:40:50;102306.84;;;-4.49;91.87
22241;BME280;11289;52.524;13.694;2024-01-11T06:43:15;102305.84;;;-4.48;91.45
22241;BME280;11289;52.524;13.694;2024-01-11T06:45:42;102314.25;;;-4.43;91.70
22241;BME280;11289;52.524;13.694;2024-01-11T06:48:08;102310.03;;;-4.45;91.65
22241;BME280;11289;52.524;13.694;2024-01-11T06:50:34;102315.91;;;-4.42;91.86
22241;BME280;11289;52.524;13.694;2024-01-11T06:53:01;102314.13;;;-4.34;91.67
22241;BME280;11289;52.524;13.694;2024-01-11T06:55:27;102298.22;;;-4.38;92.21
22241;BME280;11289;52.524;13.694;2024-01-11T06:57:53;102299.53;;;-4.33;91.78
22241;BME280;11289;52.524;13.694;2024-01-11T07:00:19;102299.16;;;-4.30;92.41
22241;BME280;11289;52.524;13.694;2024-01-11T07:02:47;102301.47;;;-4.27;92.30
22241;BME280;11289;52.524;13.694;2024-01-11T07:05:13;102295.69;;;-4.24;92.38
22241;BME280;11289;52.524;13.694;2024-01-11T07:07:39;102293.81;;;-4.24;92.45
22241;BME280;11289;52.524;13.694;2024-01-11T07:10:05;102316.84;;;-4.20;92.58
22241;BME280;11289;52.524;13.694;2024-01-11T07:12:31;102314.31;;;-4.21;93.52
22241;BME280;11289;52.524;13.694;2024-01-11T07:14:58;102311.69;;;-4.29;93.32
22241;BME280;11289;52.524;13.694;2024-01-11T07:17:24;102322.69;;;-4.16;93.85
22241;BME280;11289;52.524;13.694;2024-01-11T07:19:50;102312.31;;;-4.12;93.99
22241;BME280;11289;52.524;13.694;2024-01-11T07:22:16;102319.03;;;-4.08;93.82
22241;BME280;11289;52.524;13.694;2024-01-11T07:24:42;102315.47;;;-4.09;94.43
22241;BME280;11289;52.524;13.694;2024-01-11T07:27:08;102305.94;;;-4.05;94.24
22241;BME280;11289;52.524;13.694;2024-01-11T07:29:34;102319.09;;;-4.02;94.71
22241;BME280;11289;52.524;13.694;2024-01-11T07:32:01;102333.13;;;-3.98;94.64
22241;BME280;11289;52.524;13.694;2024-01-11T07:34:27;102321.06;;;-3.95;94.84
22241;BME280;11289;52.524;13.694;2024-01-11T07:36:53;102313.38;;;-3.92;95.17
22241;BME280;11289;52.524;13.694;2024-01-11T07:39:19;102304.56;;;-3.94;95.01
22241;BME280;11289;52.524;13.694;2024-01-11T07:41:45;102321.38;;;-3.83;95.35
22241;BME280;11289;52.524;13.694;2024-01-11T07:44:11;102311.09;;;-3.88;95.92
22241;BME280;11289;52.524;13.694;2024-01-11T07:46:37;102308.88;;;-3.85;95.90
22241;BME280;11289;52.524;13.694;2024-01-11T07:49:03;102318.75;;;-3.77;96.31
22241;BME280;11289;52.524;13.694;2024-01-11T07:51:30;102314.34;;;-3.78;95.90
22241;BME280;11289;52.524;13.694;2024-01-11T07:53:56;102302.72;;;-3.72;96.16
22241;BME280;11289;52.524;13.694;2024-01-11T07:56:22;102294.00;;;-3.67;96.18
22241;BME280;11289;52.524;13.694;2024-01-11T07:58:48;102284.78;;;-3.66;96.51
22241;BME280;11289;52.524;13.694;2024-01-11T08:01:15;102294.91;;;-3.60;96.46
22241;BME280;11289;52.524;13.694;2024-01-11T08:03:41;102300.97;;;-3.58;95.96
22241;BME280;11289;52.524;13.694;2024-01-11T08:06:10;102308.72;;;-3.55;96.33
22241;BME280;11289;52.524;13.694;2024-01-11T08:08:40;102304.78;;;-3.52;96.65
22241;BME280;11289;52.524;13.694;2024-01-11T08:11:07;102302.53;;;-3.48;96.64
22241;BME280;11289;52.524;13.694;2024-01-11T08:13:33;102294.53;;;-3.50;96.63
22241;BME280;11289;52.524;13.694;2024-01-11T08:16:01;102312.19;;;-3.39;96.39
22241;BME280;11289;52.524;13.694;2024-01-11T08:18:29;102310.13;;;-3.37;96.35
22241;BME280;11289;52.524;13.694;2024-01-11T08:20:55;102306.97;;;-3.41;96.10
22241;BME280;11289;52.524;13.694;2024-01-11T08:23:21;102294.59;;;-3.43;96.17
22241;BME280;11289;52.524;13.694;2024-01-11T08:25:47;102306.63;;;-3.31;96.73
22241;BME280;11289;52.524;13.694;2024-01-11T08:28:13;102300.75;;;-3.35;97.30
22241;BME280;11289;52.524;13.694;2024-01-11T08:30:39;102297.44;;;-3.30;97.34
22241;BME280;11289;52.524;13.694;2024-01-11T08:33:05;102287.84;;;-3.26;97.70
22241;BME280;11289;52.524;13.694;2024-01-11T08:35:31;102285.97;;;-3.25;97.42
22241;BME280;11289;52.524;13.694;2024-01-11T08:37:58;102288.09;;;-3.21;97.51
22241;BME280;11289;52.524;13.694;2024-01-11T08:40:24;102282.47;;;-3.19;97.64
22241;BME280;11289;52.524;13.694;2024-01-11T08:42:51;102286.03;;;-3.19;97.51
22241;BME280;11289;52.524;13.694;2024-01-11T08:45:17;102290.84;;;-3.14;97.80
22241;BME280;11289;52.524;13.694;2024-01-11T08:47:47;102282.31;;;-3.11;97.84
22241;BME280;11289;52.524;13.694;2024-01-11T08:50:14;102290.09;;;-3.08;97.70
22241;BME280;11289;52.524;13.694;2024-01-11T08:52:41;102292.81;;;-3.08;98.26
22241;BME280;11289;52.524;13.694;2024-01-11T08:55:08;102287.16;;;-3.06;98.16
22241;BME280;11289;52.524;13.694;2024-01-11T08:57:35;102265.44;;;-3.06;98.46
22241;BME280;11289;52.524;13.694;2024-01-11T09:00:04;102264.41;;;-2.99;98.54
22241;BME280;11289;52.524;13.694;2024-01-11T09:02:32;102255.22;;;-2.98;98.09
22241;BME280;11289;52.524;13.694;2024-01-11T09:04:58;102245.38;;;-2.99;98.14
22241;BME280;11289;52.524;13.694;2024-01-11T09:07:23;102243.09;;;-2.95;98.12
22241;BME280;11289;52.524;13.694;2024-01-11T09:09:49;102232.25;;;-2.88;98.25
22241;BME280;11289;52.524;13.694;2024-01-11T09:12:15;102244.41;;;-2.84;97.94
22241;BME280;11289;52.524;13.694;2024-01-11T09:14:41;102239.19;;;-2.79;97.63
22241;BME280;11289;52.524;13.694;2024-01-11T09:17:07;102242.56;;;-2.77;97.73
22241;BME280;11289;52.524;13.694;2024-01-11T09:19:34;102245.69;;;-2.80;97.73
22241;BME280;11289;52.524;13.694;2024-01-11T09:22:00;102257.03;;;-2.70;97.99
22241;BME280;11289;52.524;13.694;2024-01-11T09:24:26;102259.75;;;-2.70;97.69
22241;BME280;11289;52.524;13.694;2024-01-11T09:26:52;102262.91;;;-2.66;97.57
22241;BME280;11289;52.524;13.694;2024-01-11T09:29:18;102266.28;;;-2.64;97.20
22241;BME280;11289;52.524;13.694;2024-01-11T09:31:43;102269.41;;;-2.60;97.34
22241;BME280;11289;52.524;13.694;2024-01-11T09:34:10;102263.34;;;-2.63;97.54
22241;BME280;11289;52.524;13.694;2024-01-11T09:36:36;102273.22;;;-2.55;97.58
22241;BME280;11289;52.524;13.694;2024-01-11T09:39:05;102275.72;;;-2.53;97.48
22241;BME280;11289;52.524;13.694;2024-01-11T09:41:31;102264.84;;;-2.53;97.22
22241;BME280;11289;52.524;13.694;2024-01-11T09:44:00;102265.91;;;-2.48;97.28
22241;BME280;11289;52.524;13.694;2024-01-11T09:46:28;102266.75;;;-2.47;97.36
22241;BME280;11289;52.524;13.694;2024-01-11T09:48:55;102255.66;;;-2.46;96.86
22241;BME280;11289;52.524;13.694;2024-01-11T09:51:23;102270.75;;;-2.43;97.16
22241;BME280;11289;52.524;13.694;2024-01-11T09:53:50;102253.16;;;-2.47;97.10
22241;BME280;11289;52.524;13.694;2024-01-11T09:56:17;102267.59;;;-2.47;97.27
22241;BME280;11289;52.524;13.694;2024-01-11T09:58:46;102271.41;;;-2.41;97.60
22241;BME280;11289;52.524;13.694;2024-01-11T10:01:16;102270.34;;;-2.40;97.57
22241;BME280;11289;52.524;13.694;2024-01-11T10:03:43;102273.09;;;-2.33;97.55
22241;BME280;11289;52.524;13.694;2024-01-11T10:06:12;102270.16;;;-2.32;97.80
22241;BME280;11289;52.524;13.694;2024-01-11T10:08:38;102266.41;;;-2.31;97.61
22241;BME280;11289;52.524;13.694;2024-01-11T10:11:04;102266.00;;;-2.28;97.47
22241;BME280;11289;52.524;13.694;2024-01-11T10:13:30;102263.06;;;-2.19;97.37
22241;BME280;11289;52.524;13.694;2024-01-11T10:16:10;102253.88;;;-2.18;97.27
22241;BME280;11289;52.524;13.694;2024-01-11T10:18:39;102241.28;;;-2.19;97.23
22241;BME280;11289;52.524;13.694;2024-01-11T10:21:05;102235.84;;;-2.19;97.06
22241;BME280;11289;52.524;13.694;2024-01-11T10:23:34;102241.13;;;-2.18;96.65
22241;BME280;11289;52.524;13.694;2024-01-11T10:26:00;102231.47;;;-2.14;96.54
22241;BME280;11289;52.524;13.694;2024-01-11T10:28:26;102240.50;;;-2.13;96.69
22241;BME280;11289;52.524;13.694;2024-01-11T10:30:53;102238.81;;;-2.14;96.34
22241;BME280;11289;52.524;13.694;2024-01-11T10:33:20;102255.34;;;-2.16;96.54
22241;BME280;11289;52.524;13.694;2024-01-11T10:35:47;102255.75;;;-2.19;96.34
22241;BME280;11289;52.524;13.694;2024-01-11T10:38:17;102259.31;;;-2.18;96.77
22241;BME280;11289;52.524;13.694;2024-01-11T10:40:44;102264.34;;;-2.22;96.55
22241;BME280;11289;52.524;13.694;2024-01-11T10:43:10;102268.13;;;-2.16;97.14
22241;BME280;11289;52.524;13.694;2024-01-11T10:45:37;102268.75;;;-2.14;97.17
22241;BME280;11289;52.524;13.694;2024-01-11T10:48:14;102257.03;;;-2.08;97.88
22241;BME280;11289;52.524;13.694;2024-01-11T10:50:50;102248.44;;;-2.05;97.81
22241;BME280;11289;52.524;13.694;2024-01-11T10:53:25;102248.69;;;-2.00;97.59
22241;BME280;11289;52.524;13.694;2024-01-11T10:55:55;102236.34;;;-1.96;97.80
22241;BME280;11289;52.524;13.694;2024-01-11T10:58:22;102228.16;;;-1.96;97.87
22241;BME280;11289;52.524;13.694;2024-01-11T11:00:51;102226.47;;;-1.97;97.49
22241;BME280;11289;52.524;13.694;2024-01-11T11:03:21;102218.97;;;-1.95;98.04
22241;BME280;11289;52.524;13.694;2024-01-11T11:05:48;102220.41;;;-1.92;98.08
22241;BME280;11289;52.524;13.694;2024-01-11T11:08:17;102223.56;;;-1.88;98.05
22241;BME280;11289;52.524;13.694;2024-01-11T11:10:45;102239.69;;;-1.87;98.22
22241;BME280;11289;52.524;13.694;2024-01-11T11:13:16;102260.63;;;-1.87;98.56
22241;BME280;11289;52.524;13.694;2024-01-11T11:15:45;102253.94;;;-1.85;98.42
22241;BME280;11289;52.524;13.694;2024-01-11T11:18:13;102251.00;;;-1.83;98.40
22241;BME280;11289;52.524;13.694;2024-01-11T11:20:42;102254.78;;;-1.84;98.57
22241;BME280;11289;52.524;13.694;2024-01-11T11:23:10;102244.50;;;-1.82;98.67
22241;BME280;11289;52.524;13.694;2024-01-11T11:25:37;102251.66;;;-1.81;98.67
22241;BME280;11289;52.524;13.694;2024-01-11T11:28:04;102249.34;;;-1.84;98.49
22241;BME280;11289;52.524;13.694;2024-01-11T11:30:31;102264.41;;;-1.82;98.70
22241;BME280;11289;52.524;13.694;2024-01-11T11:32:57;102265.47;;;-1.83;98.94
22241;BME280;11289;52.524;13.694;2024-01-11T11:35:23;102268.59;;;-1.79;98.95
22241;BME280;11289;52.524;13.694;2024-01-11T11:37:55;102267.13;;;-1.82;98.46
22241;BME280;11289;52.524;13.694;2024-01-11T11:40:32;102259.41;;;-1.78;98.57
22241;BME280;11289;52.524;13.694;2024-01-11T11:43:01;102249.13;;;-1.83;98.76
22241;BME280;11289;52.524;13.694;2024-01-11T11:45:27;102250.81;;;-1.75;99.24
22241;BME280;11289;52.524;13.694;2024-01-11T11:47:53;102259.81;;;-1.75;99.55
22241;BME280;11289;52.524;13.694;2024-01-11T11:50:22;102255.19;;;-1.67;99.52
22241;BME280;11289;52.524;13.694;2024-01-11T11:52:53;102250.63;;;-1.67;99.11
22241;BME280;11289;52.524;13.694;2024-01-11T11:55:20;102249.53;;;-1.66;99.44
22241;BME280;11289;52.524;13.694;2024-01-11T11:57:48;102243.06;;;-1.65;99.42
22241;BME280;11289;52.524;13.694;2024-01-11T12:00:15;102231.13;;;-1.64;99.08
22241;BME280;11289;52.524;13.694;2024-01-11T12:02:42;102231.53;;;-1.60;99.31
22241;BME280;11289;52.524;13.694;2024-01-11T12:05:07;102231.31;;;-1.59;99.26
22241;BME280;11289;52.524;13.694;2024-01-11T12:07:34;102234.25;;;-1.53;99.08
22241;BME280;11289;52.524;13.694;2024-01-11T12:10:00;102236.16;;;-1.54;99.00
22241;BME280;11289;52.524;13.694;2024-01-11T12:12:26;102232.56;;;-1.54;99.31
22241;BME280;11289;52.524;13.694;2024-01-11T12:14:53;102240.75;;;-1.54;99.19
22241;BME280;11289;52.524;13.694;2024-01-11T12:17:19;102228.81;;;-1.53;99.66
22241;BME280;11289;52.524;13.694;2024-01-11T12:19:45;102223.38;;;-1.53;99.20
22241;BME280;11289;52.524;13.694;2024-01-11T12:22:11;102246.00;;;-1.46;99.67
22241;BME280;11289;52.524;13.694;2024-01-11T12:24:37;102250.41;;;-1.45;99.69
22241;BME280;11289;52.524;13.694;2024-01-11T12:27:03;102247.88;;;-1.47;99.36
22241;BME280;11289;52.524;13.694;2024-01-11T12:29:29;102251.63;;;-1.41;99.52
22241;BME280;11289;52.524;13.694;2024-01-11T12:31:59;102243.03;;;-1.38;99.86
22241;BME280;11289;52.524;13.694;2024-01-11T12:34:25;102237.59;;;-1.38;99.79
22241;BME280;11289;52.524;13.694;2024-01-11T12:36:55;102231.31;;;-1.38;100.00